aviador You're here:

PAKK Decoded Metar

KOYUK in AK, USA
Report Time2018-02-19 11:56:00
UTC Time2018-02-19 12:05:09
Flight Rules mvfr MVFR
Wind170° at 03 kt
W.Decomp.*RWY 19: 2.4 kt HW 1.8 kt LCW
W.Rank170° ranks 17
Current wind is below 170° avg. (7.2)
Visibility9999 m
Phenomena:N/A
Clouds:Overcast 024 Hf
Ceiling2,400 ft
Temp-2°C (ISA -17)
Dew Point-2°C (100% RH)
AAT-5.3°C
QNH1024 hPa
Density Alt-2,198 ft
Elevation154 ft
Report Wrong Elevation
Raw Report
PAKK 191156Z AUTO 17003KT 10SM OVC024 M02/M02 A3025 RMK AO2 SLP259
60000 T10171022 11011 21017 51003 FZRANO=

Extra information for PAKK:More info

Metar Taf Metar & Taf Last 4 Metars F.Rules Stats Wind Profile Meteogram Temp Stats Airport Information Weather charts Add Link Nearby VenuesMetar ALERT Operation Metar Decoded Social comments

AIRNAV info for PAKK